Aviation Digital Data Service (ADDS)

Output produced by METARs form (0740 UTC 26 October 2014)
found at http://aviationweather.gov/adds/metars/
 
KGFL 260520Z 2606/2706 22007KT P6SM BKN040 BKN050 
     FM260800 24006KT P6SM SCT040 SCT070 
     FM261200 26010KT P6SM VCSH BKN040 
     FM261600 29013G23KT P6SM OVC040 
     FM262200 29010G18KT P6SM BKN050 
     FM270000 28010KT P6SM BKN050 
     FM270400 28006KT P6SM BKN050